sensor_id;sensor_type;location;lat;lon;timestamp;temperature;humidity
13203;DHT22;6666;51.626;7.530;2023-03-31T00:01:43;11.70;99.90
13203;DHT22;6666;51.626;7.530;2023-03-31T00:04:11;11.70;99.90
13203;DHT22;6666;51.626;7.530;2023-03-31T00:06:41;11.60;99.90
13203;DHT22;6666;51.626;7.530;2023-03-31T00:09:11;11.70;99.90
13203;DHT22;6666;51.626;7.530;2023-03-31T00:11:41;11.60;99.90
13203;DHT22;6666;51.626;7.530;2023-03-31T00:14:11;11.50;99.90
13203;DHT22;6666;51.626;7.530;2023-03-31T00:16:39;11.50;99.90
13203;DHT22;6666;51.626;7.530;2023-03-31T00:19:09;11.50;99.90
13203;DHT22;6666;51.626;7.530;2023-03-31T00:21:44;11.50;99.90
13203;DHT22;6666;51.626;7.530;2023-03-31T00:24:13;11.50;99.90
13203;DHT22;6666;51.626;7.530;2023-03-31T00:26:43;11.50;99.90
13203;DHT22;6666;51.626;7.530;2023-03-31T00:29:12;11.50;99.90
13203;DHT22;6666;51.626;7.530;2023-03-31T00:31:41;11.50;99.90
13203;DHT22;6666;51.626;7.530;2023-03-31T00:34:09;11.40;99.90
13203;DHT22;6666;51.626;7.530;2023-03-31T00:36:38;11.40;99.90
13203;DHT22;6666;51.626;7.530;2023-03-31T00:39:14;11.40;99.90
13203;DHT22;6666;51.626;7.530;2023-03-31T00:41:44;11.40;99.90
13203;DHT22;6666;51.626;7.530;2023-03-31T00:44:15;11.40;99.90
13203;DHT22;6666;51.626;7.530;2023-03-31T00:46:51;11.40;99.90
13203;DHT22;6666;51.626;7.530;2023-03-31T00:49:25;11.30;99.90
13203;DHT22;6666;51.626;7.530;2023-03-31T00:51:58;11.20;99.90
13203;DHT22;6666;51.626;7.530;2023-03-31T00:54:29;11.10;99.90
13203;DHT22;6666;51.626;7.530;2023-03-31T00:57:00;11.10;99.90
13203;DHT22;6666;51.626;7.530;2023-03-31T00:59:34;11.10;99.90
13203;DHT22;6666;51.626;7.530;2023-03-31T01:02:03;11.10;99.90
13203;DHT22;6666;51.626;7.530;2023-03-31T01:04:35;11.10;99.90
13203;DHT22;6666;51.626;7.530;2023-03-31T01:07:09;11.10;99.90
13203;DHT22;6666;51.626;7.530;2023-03-31T01:09:44;11.10;99.90
13203;DHT22;6666;51.626;7.530;2023-03-31T01:12:15;11.10;99.90
13203;DHT22;6666;51.626;7.530;2023-03-31T01:14:48;11.10;99.90
13203;DHT22;6666;51.626;7.530;2023-03-31T01:17:17;11.20;99.90
13203;DHT22;6666;51.626;7.530;2023-03-31T01:19:56;11.20;99.90
13203;DHT22;6666;51.626;7.530;2023-03-31T01:28:44;11.20;99.90
13203;DHT22;6666;51.626;7.530;2023-03-31T01:35:09;11.30;99.90
13203;DHT22;6666;51.626;7.530;2023-03-31T01:38:03;11.30;99.90
13203;DHT22;6666;51.626;7.530;2023-03-31T01:40:59;11.30;99.90
13203;DHT22;6666;51.626;7.530;2023-03-31T01:43:35;11.40;99.90
13203;DHT22;6666;51.626;7.530;2023-03-31T01:46:12;11.50;99.90
13203;DHT22;6666;51.626;7.530;2023-03-31T01:48:50;11.50;99.90
13203;DHT22;6666;51.626;7.530;2023-03-31T01:51:25;11.50;99.90
13203;DHT22;6666;51.626;7.530;2023-03-31T01:54:04;11.50;99.90
13203;DHT22;6666;51.626;7.530;2023-03-31T01:56:38;11.50;99.90
13203;DHT22;6666;51.626;7.530;2023-03-31T01:59:10;11.50;99.90
13203;DHT22;6666;51.626;7.530;2023-03-31T02:01:42;11.40;99.90
13203;DHT22;6666;51.626;7.530;2023-03-31T02:04:16;11.40;99.90
13203;DHT22;6666;51.626;7.530;2023-03-31T02:06:50;11.30;99.90
13203;DHT22;6666;51.626;7.530;2023-03-31T02:09:26;11.30;99.90
13203;DHT22;6666;51.626;7.530;2023-03-31T02:11:58;11.30;99.90
13203;DHT22;6666;51.626;7.530;2023-03-31T02:14:29;11.20;99.90
13203;DHT22;6666;51.626;7.530;2023-03-31T02:16:58;11.20;99.90
13203;DHT22;6666;51.626;7.530;2023-03-31T02:19:32;11.20;99.90
13203;DHT22;6666;51.626;7.530;2023-03-31T02:22:02;11.20;99.90
13203;DHT22;6666;51.626;7.530;2023-03-31T02:24:33;11.20;99.90
13203;DHT22;6666;51.626;7.530;2023-03-31T02:27:06;11.20;99.90
13203;DHT22;6666;51.626;7.530;2023-03-31T02:29:36;11.10;99.90
13203;DHT22;6666;51.626;7.530;2023-03-31T02:32:11;11.10;99.90
13203;DHT22;6666;51.626;7.530;2023-03-31T02:34:41;11.10;99.90
13203;DHT22;6666;51.626;7.530;2023-03-31T02:37:10;11.10;99.90
13203;DHT22;6666;51.626;7.530;2023-03-31T02:39:40;11.10;99.90
13203;DHT22;6666;51.626;7.530;2023-03-31T02:42:11;11.10;99.90
13203;DHT22;6666;51.626;7.530;2023-03-31T02:44:40;11.20;99.90
13203;DHT22;6666;51.626;7.530;2023-03-31T02:47:10;11.10;99.90
13203;DHT22;6666;51.626;7.530;2023-03-31T02:49:46;11.10;99.90
13203;DHT22;6666;51.626;7.530;2023-03-31T02:52:35;11.10;99.90
13203;DHT22;6666;51.626;7.530;2023-03-31T02:58:33;11.10;99.90
13203;DHT22;6666;51.626;7.530;2023-03-31T03:01:13;11.00;99.90
13203;DHT22;6666;51.626;7.530;2023-03-31T03:03:57;11.00;99.90
13203;DHT22;6666;51.626;7.530;2023-03-31T03:06:37;11.00;99.90
13203;DHT22;6666;51.626;7.530;2023-03-31T03:09:31;11.00;99.90
13203;DHT22;6666;51.626;7.530;2023-03-31T03:12:09;11.00;99.90
13203;DHT22;6666;51.626;7.530;2023-03-31T03:14:46;11.00;99.90
13203;DHT22;6666;51.626;7.530;2023-03-31T03:17:19;11.00;99.90
13203;DHT22;6666;51.626;7.530;2023-03-31T03:19:54;11.00;99.90
13203;DHT22;6666;51.626;7.530;2023-03-31T03:22:23;11.00;99.90
13203;DHT22;6666;51.626;7.530;2023-03-31T03:24:51;11.00;99.90
13203;DHT22;6666;51.626;7.530;2023-03-31T03:27:20;11.00;99.90
13203;DHT22;6666;51.626;7.530;2023-03-31T03:29:51;11.00;99.90
13203;DHT22;6666;51.626;7.530;2023-03-31T03:32:19;10.90;99.90
13203;DHT22;6666;51.626;7.530;2023-03-31T03:34:48;11.00;99.90
13203;DHT22;6666;51.626;7.530;2023-03-31T03:37:16;10.90;99.90
13203;DHT22;6666;51.626;7.530;2023-03-31T03:39:44;10.90;99.90
13203;DHT22;6666;51.626;7.530;2023-03-31T03:42:13;10.90;99.90
13203;DHT22;6666;51.626;7.530;2023-03-31T03:44:41;10.90;99.90
13203;DHT22;6666;51.626;7.530;2023-03-31T03:47:11;10.90;99.90
13203;DHT22;6666;51.626;7.530;2023-03-31T03:49:39;10.90;99.90
13203;DHT22;6666;51.626;7.530;2023-03-31T03:52:07;10.90;99.90
13203;DHT22;6666;51.626;7.530;2023-03-31T03:54:35;10.90;99.90
13203;DHT22;6666;51.626;7.530;2023-03-31T03:57:04;10.90;99.90
13203;DHT22;6666;51.626;7.530;2023-03-31T03:59:33;10.90;99.90
13203;DHT22;6666;51.626;7.530;2023-03-31T04:02:01;10.90;99.90
13203;DHT22;6666;51.626;7.530;2023-03-31T04:04:31;10.90;99.90
13203;DHT22;6666;51.626;7.530;2023-03-31T04:06:59;10.80;99.90
13203;DHT22;6666;51.626;7.530;2023-03-31T04:09:27;10.80;99.90
13203;DHT22;6666;51.626;7.530;2023-03-31T04:11:56;10.80;99.90
13203;DHT22;6666;51.626;7.530;2023-03-31T04:14:24;10.80;99.90
13203;DHT22;6666;51.626;7.530;2023-03-31T04:16:52;10.70;99.90
13203;DHT22;6666;51.626;7.530;2023-03-31T04:19:22;10.80;99.90
13203;DHT22;6666;51.626;7.530;2023-03-31T04:21:53;10.80;99.90
13203;DHT22;6666;51.626;7.530;2023-03-31T04:24:29;10.80;99.90
13203;DHT22;6666;51.626;7.530;2023-03-31T04:26:59;10.80;99.90
13203;DHT22;6666;51.626;7.530;2023-03-31T04:29:29;10.80;99.90
13203;DHT22;6666;51.626;7.530;2023-03-31T04:32:00;10.80;99.90
13203;DHT22;6666;51.626;7.530;2023-03-31T04:34:28;10.90;99.90
13203;DHT22;6666;51.626;7.530;2023-03-31T04:37:03;10.80;99.90
13203;DHT22;6666;51.626;7.530;2023-03-31T04:39:31;10.80;99.90
13203;DHT22;6666;51.626;7.530;2023-03-31T04:42:00;10.80;99.90
13203;DHT22;6666;51.626;7.530;2023-03-31T04:44:28;10.80;99.90
13203;DHT22;6666;51.626;7.530;2023-03-31T04:46:57;10.80;99.90
13203;DHT22;6666;51.626;7.530;2023-03-31T04:49:29;10.80;99.90
13203;DHT22;6666;51.626;7.530;2023-03-31T04:51:59;10.80;99.90
13203;DHT22;6666;51.626;7.530;2023-03-31T04:54:29;10.80;99.90
13203;DHT22;6666;51.626;7.530;2023-03-31T04:56:57;10.80;99.90
13203;DHT22;6666;51.626;7.530;2023-03-31T04:59:25;10.70;99.90
13203;DHT22;6666;51.626;7.530;2023-03-31T05:01:54;10.80;99.90
13203;DHT22;6666;51.626;7.530;2023-03-31T05:04:22;10.80;99.90
13203;DHT22;6666;51.626;7.530;2023-03-31T05:06:50;10.80;99.90
13203;DHT22;6666;51.626;7.530;2023-03-31T05:09:19;10.70;99.90
13203;DHT22;6666;51.626;7.530;2023-03-31T05:11:49;10.80;99.90
13203;DHT22;6666;51.626;7.530;2023-03-31T05:14:17;10.80;99.90
13203;DHT22;6666;51.626;7.530;2023-03-31T05:16:46;10.80;99.90
13203;DHT22;6666;51.626;7.530;2023-03-31T05:19:15;10.80;99.90
13203;DHT22;6666;51.626;7.530;2023-03-31T05:21:44;10.80;99.90
13203;DHT22;6666;51.626;7.530;2023-03-31T05:24:12;10.80;99.90
13203;DHT22;6666;51.626;7.530;2023-03-31T05:26:41;10.80;99.90
13203;DHT22;6666;51.626;7.530;2023-03-31T05:29:15;10.90;99.90
13203;DHT22;6666;51.626;7.530;2023-03-31T05:31:43;10.90;99.90
13203;DHT22;6666;51.626;7.530;2023-03-31T05:34:12;10.80;99.90
13203;DHT22;6666;51.626;7.530;2023-03-31T05:36:41;10.80;99.90
13203;DHT22;6666;51.626;7.530;2023-03-31T05:39:09;10.90;99.90
13203;DHT22;6666;51.626;7.530;2023-03-31T05:41:37;10.80;99.90
13203;DHT22;6666;51.626;7.530;2023-03-31T05:44:05;10.80;99.90
13203;DHT22;6666;51.626;7.530;2023-03-31T05:46:35;10.80;99.90
13203;DHT22;6666;51.626;7.530;2023-03-31T05:49:03;10.80;99.90
13203;DHT22;6666;51.626;7.530;2023-03-31T05:51:32;10.80;99.90
13203;DHT22;6666;51.626;7.530;2023-03-31T05:54:00;10.70;99.90
13203;DHT22;6666;51.626;7.530;2023-03-31T05:56:29;10.70;99.90
13203;DHT22;6666;51.626;7.530;2023-03-31T05:58:58;10.70;99.90
13203;DHT22;6666;51.626;7.530;2023-03-31T06:01:27;10.70;99.90
13203;DHT22;6666;51.626;7.530;2023-03-31T06:03:57;10.80;99.90
13203;DHT22;6666;51.626;7.530;2023-03-31T06:06:26;10.80;99.90
13203;DHT22;6666;51.626;7.530;2023-03-31T06:08:54;10.80;99.90
13203;DHT22;6666;51.626;7.530;2023-03-31T06:11:22;10.90;99.90
13203;DHT22;6666;51.626;7.530;2023-03-31T06:13:51;10.90;99.90
13203;DHT22;6666;51.626;7.530;2023-03-31T06:16:19;11.00;99.90
13203;DHT22;6666;51.626;7.530;2023-03-31T06:18:48;11.10;99.90
13203;DHT22;6666;51.626;7.530;2023-03-31T06:21:18;11.10;99.90
13203;DHT22;6666;51.626;7.530;2023-03-31T06:23:47;11.10;99.90
13203;DHT22;6666;51.626;7.530;2023-03-31T06:26:17;11.20;99.90
13203;DHT22;6666;51.626;7.530;2023-03-31T06:28:46;11.10;99.90
13203;DHT22;6666;51.626;7.530;2023-03-31T06:31:16;11.00;99.90
13203;DHT22;6666;51.626;7.530;2023-03-31T06:33:45;11.10;99.90
13203;DHT22;6666;51.626;7.530;2023-03-31T06:36:16;11.00;99.90
13203;DHT22;6666;51.626;7.530;2023-03-31T06:38:47;11.00;99.90
13203;DHT22;6666;51.626;7.530;2023-03-31T06:41:16;11.00;99.90
13203;DHT22;6666;51.626;7.530;2023-03-31T06:43:46;11.10;99.90
13203;DHT22;6666;51.626;7.530;2023-03-31T06:46:15;11.00;99.90
13203;DHT22;6666;51.626;7.530;2023-03-31T06:48:44;11.00;99.90
13203;DHT22;6666;51.626;7.530;2023-03-31T06:51:16;11.00;99.90
13203;DHT22;6666;51.626;7.530;2023-03-31T06:53:46;11.00;99.90
13203;DHT22;6666;51.626;7.530;2023-03-31T06:56:14;11.00;99.90
13203;DHT22;6666;51.626;7.530;2023-03-31T06:58:43;11.10;99.90
13203;DHT22;6666;51.626;7.530;2023-03-31T07:01:11;11.00;99.90
13203;DHT22;6666;51.626;7.530;2023-03-31T07:03:40;11.00;99.90
13203;DHT22;6666;51.626;7.530;2023-03-31T07:06:08;10.90;99.90
13203;DHT22;6666;51.626;7.530;2023-03-31T07:08:36;11.00;99.90
13203;DHT22;6666;51.626;7.530;2023-03-31T07:11:06;11.00;99.90
13203;DHT22;6666;51.626;7.530;2023-03-31T07:13:35;10.90;99.90
13203;DHT22;6666;51.626;7.530;2023-03-31T07:16:04;11.00;99.90
13203;DHT22;6666;51.626;7.530;2023-03-31T07:18:34;10.90;99.90
13203;DHT22;6666;51.626;7.530;2023-03-31T07:21:03;10.90;99.90
13203;DHT22;6666;51.626;7.530;2023-03-31T07:23:36;10.80;99.90
13203;DHT22;6666;51.626;7.530;2023-03-31T07:26:06;10.90;99.90
13203;DHT22;6666;51.626;7.530;2023-03-31T07:28:34;10.90;99.90
13203;DHT22;6666;51.626;7.530;2023-03-31T07:31:09;10.90;99.90
13203;DHT22;6666;51.626;7.530;2023-03-31T07:33:38;10.90;99.90
13203;DHT22;6666;51.626;7.530;2023-03-31T07:36:07;10.90;99.90
13203;DHT22;6666;51.626;7.530;2023-03-31T07:38:41;11.00;99.90
13203;DHT22;6666;51.626;7.530;2023-03-31T07:41:15;11.00;99.90
13203;DHT22;6666;51.626;7.530;2023-03-31T07:43:44;10.90;99.90
13203;DHT22;6666;51.626;7.530;2023-03-31T07:46:14;10.90;99.90
13203;DHT22;6666;51.626;7.530;2023-03-31T07:48:44;11.00;99.90
13203;DHT22;6666;51.626;7.530;2023-03-31T07:51:14;11.00;99.90
13203;DHT22;6666;51.626;7.530;2023-03-31T07:53:43;10.90;99.90
13203;DHT22;6666;51.626;7.530;2023-03-31T07:56:13;10.90;99.90
13203;DHT22;6666;51.626;7.530;2023-03-31T07:58:43;10.80;99.90
13203;DHT22;6666;51.626;7.530;2023-03-31T08:01:13;10.80;99.90
13203;DHT22;6666;51.626;7.530;2023-03-31T08:03:44;10.80;99.90
13203;DHT22;6666;51.626;7.530;2023-03-31T08:06:17;10.70;99.90
13203;DHT22;6666;51.626;7.530;2023-03-31T08:08:45;10.70;99.90
13203;DHT22;6666;51.626;7.530;2023-03-31T08:11:15;10.70;99.90
13203;DHT22;6666;51.626;7.530;2023-03-31T08:13:44;10.80;99.90
13203;DHT22;6666;51.626;7.530;2023-03-31T08:16:12;10.80;99.90
13203;DHT22;6666;51.626;7.530;2023-03-31T08:18:41;10.70;99.90
13203;DHT22;6666;51.626;7.530;2023-03-31T08:21:09;10.70;99.90
13203;DHT22;6666;51.626;7.530;2023-03-31T08:23:38;10.80;99.90
13203;DHT22;6666;51.626;7.530;2023-03-31T08:26:08;10.80;99.90
13203;DHT22;6666;51.626;7.530;2023-03-31T08:28:38;10.90;99.90
13203;DHT22;6666;51.626;7.530;2023-03-31T08:31:07;10.90;99.90
13203;DHT22;6666;51.626;7.530;2023-03-31T08:33:36;11.00;99.90
13203;DHT22;6666;51.626;7.530;2023-03-31T08:36:06;11.00;99.90
13203;DHT22;6666;51.626;7.530;2023-03-31T08:38:37;11.00;99.90
13203;DHT22;6666;51.626;7.530;2023-03-31T08:41:26;10.90;99.90
13203;DHT22;6666;51.626;7.530;2023-03-31T08:44:03;11.20;99.90
13203;DHT22;6666;51.626;7.530;2023-03-31T08:46:33;11.40;99.90
13203;DHT22;6666;51.626;7.530;2023-03-31T08:49:03;11.50;99.90
13203;DHT22;6666;51.626;7.530;2023-03-31T08:51:36;11.50;99.90
13203;DHT22;6666;51.626;7.530;2023-03-31T08:54:11;11.40;99.90
13203;DHT22;6666;51.626;7.530;2023-03-31T08:56:44;11.40;99.90
13203;DHT22;6666;51.626;7.530;2023-03-31T08:59:22;11.40;99.90
13203;DHT22;6666;51.626;7.530;2023-03-31T09:01:59;11.50;99.90
13203;DHT22;6666;51.626;7.530;2023-03-31T09:04:49;11.50;99.90
13203;DHT22;6666;51.626;7.530;2023-03-31T09:07:22;11.50;99.90
13203;DHT22;6666;51.626;7.530;2023-03-31T09:09:59;11.50;99.90
13203;DHT22;6666;51.626;7.530;2023-03-31T09:12:36;11.50;99.90
13203;DHT22;6666;51.626;7.530;2023-03-31T09:15:10;11.40;99.90
13203;DHT22;6666;51.626;7.530;2023-03-31T09:17:43;11.50;99.90
13203;DHT22;6666;51.626;7.530;2023-03-31T09:20:17;11.50;99.90
13203;DHT22;6666;51.626;7.530;2023-03-31T09:22:49;11.60;99.90
13203;DHT22;6666;51.626;7.530;2023-03-31T09:25:20;11.70;99.90
13203;DHT22;6666;51.626;7.530;2023-03-31T09:27:52;11.60;99.90
13203;DHT22;6666;51.626;7.530;2023-03-31T09:30:26;11.60;99.90
13203;DHT22;6666;51.626;7.530;2023-03-31T09:33:08;11.60;99.90
13203;DHT22;6666;51.626;7.530;2023-03-31T09:35:38;11.70;99.90
13203;DHT22;6666;51.626;7.530;2023-03-31T09:38:09;11.70;99.90
13203;DHT22;6666;51.626;7.530;2023-03-31T09:40:38;11.70;99.90
13203;DHT22;6666;51.626;7.530;2023-03-31T09:43:10;11.70;99.90
13203;DHT22;6666;51.626;7.530;2023-03-31T09:45:44;11.70;99.90
13203;DHT22;6666;51.626;7.530;2023-03-31T09:48:34;11.80;99.90
13203;DHT22;6666;51.626;7.530;2023-03-31T09:51:05;11.80;99.90
13203;DHT22;6666;51.626;7.530;2023-03-31T09:53:39;11.90;99.90
13203;DHT22;6666;51.626;7.530;2023-03-31T09:56:08;12.00;99.90
13203;DHT22;6666;51.626;7.530;2023-03-31T09:58:40;12.00;99.90
13203;DHT22;6666;51.626;7.530;2023-03-31T10:01:13;12.00;99.90
13203;DHT22;6666;51.626;7.530;2023-03-31T10:03:46;11.90;99.90
13203;DHT22;6666;51.626;7.530;2023-03-31T10:06:17;11.90;99.90
13203;DHT22;6666;51.626;7.530;2023-03-31T10:08:48;11.90;99.90
13203;DHT22;6666;51.626;7.530;2023-03-31T10:11:18;11.80;99.90
13203;DHT22;6666;51.626;7.530;2023-03-31T10:13:49;11.90;99.90
13203;DHT22;6666;51.626;7.530;2023-03-31T10:16:23;11.90;99.90
13203;DHT22;6666;51.626;7.530;2023-03-31T10:18:55;11.90;99.90
13203;DHT22;6666;51.626;7.530;2023-03-31T10:21:38;11.90;99.90
13203;DHT22;6666;51.626;7.530;2023-03-31T10:24:10;11.90;99.90
13203;DHT22;6666;51.626;7.530;2023-03-31T10:26:39;12.00;99.90
13203;DHT22;6666;51.626;7.530;2023-03-31T10:29:11;12.00;99.90
13203;DHT22;6666;51.626;7.530;2023-03-31T10:31:41;12.00;99.90
13203;DHT22;6666;51.626;7.530;2023-03-31T10:34:14;12.10;99.90
13203;DHT22;6666;51.626;7.530;2023-03-31T10:36:45;12.20;99.90
13203;DHT22;6666;51.626;7.530;2023-03-31T10:39:15;12.30;99.90
13203;DHT22;6666;51.626;7.530;2023-03-31T10:41:49;12.40;99.90
13203;DHT22;6666;51.626;7.530;2023-03-31T10:44:31;12.40;99.90
13203;DHT22;6666;51.626;7.530;2023-03-31T10:47:14;12.40;99.90
13203;DHT22;6666;51.626;7.530;2023-03-31T10:49:44;12.30;99.90
13203;DHT22;6666;51.626;7.530;2023-03-31T10:52:17;12.30;99.90
13203;DHT22;6666;51.626;7.530;2023-03-31T10:54:47;12.40;99.90
13203;DHT22;6666;51.626;7.530;2023-03-31T10:57:17;12.50;99.90
13203;DHT22;6666;51.626;7.530;2023-03-31T11:00:01;12.60;99.90
13203;DHT22;6666;51.626;7.530;2023-03-31T11:02:46;12.60;99.90
13203;DHT22;6666;51.626;7.530;2023-03-31T11:05:19;12.70;99.90
13203;DHT22;6666;51.626;7.530;2023-03-31T11:08:00;12.70;99.90
13203;DHT22;6666;51.626;7.530;2023-03-31T11:10:40;12.80;99.90
13203;DHT22;6666;51.626;7.530;2023-03-31T11:13:17;12.70;99.90
13203;DHT22;6666;51.626;7.530;2023-03-31T11:15:51;12.60;99.90
13203;DHT22;6666;51.626;7.530;2023-03-31T11:18:35;12.50;99.90
13203;DHT22;6666;51.626;7.530;2023-03-31T11:21:13;12.50;99.90
13203;DHT22;6666;51.626;7.530;2023-03-31T11:23:52;12.30;99.90
13203;DHT22;6666;51.626;7.530;2023-03-31T11:26:30;12.30;99.90
13203;DHT22;6666;51.626;7.530;2023-03-31T11:29:07;12.40;99.90
13203;DHT22;6666;51.626;7.530;2023-03-31T11:31:47;12.50;99.90
13203;DHT22;6666;51.626;7.530;2023-03-31T11:34:29;12.70;99.90
13203;DHT22;6666;51.626;7.530;2023-03-31T11:37:32;12.80;99.90
13203;DHT22;6666;51.626;7.530;2023-03-31T11:40:39;13.10;99.90
13203;DHT22;6666;51.626;7.530;2023-03-31T11:43:16;13.20;99.90
13203;DHT22;6666;51.626;7.530;2023-03-31T11:45:52;13.10;99.90
13203;DHT22;6666;51.626;7.530;2023-03-31T11:48:31;13.00;99.90
13203;DHT22;6666;51.626;7.530;2023-03-31T11:51:05;12.80;99.90
13203;DHT22;6666;51.626;7.530;2023-03-31T11:53:36;12.60;99.90
13203;DHT22;6666;51.626;7.530;2023-03-31T11:56:07;12.40;99.90
13203;DHT22;6666;51.626;7.530;2023-03-31T11:58:39;12.50;99.90
13203;DHT22;6666;51.626;7.530;2023-03-31T12:01:15;12.40;99.90
13203;DHT22;6666;51.626;7.530;2023-03-31T12:03:53;12.50;99.90
13203;DHT22;6666;51.626;7.530;2023-03-31T12:06:28;12.80;99.90
13203;DHT22;6666;51.626;7.530;2023-03-31T12:09:06;13.10;99.90
13203;DHT22;6666;51.626;7.530;2023-03-31T12:11:39;13.40;99.90
13203;DHT22;6666;51.626;7.530;2023-03-31T12:14:19;13.50;99.90
13203;DHT22;6666;51.626;7.530;2023-03-31T12:16:51;13.60;99.90
13203;DHT22;6666;51.626;7.530;2023-03-31T12:19:23;13.60;99.90
13203;DHT22;6666;51.626;7.530;2023-03-31T12:21:59;13.50;99.90
13203;DHT22;6666;51.626;7.530;2023-03-31T12:24:30;13.70;99.90
13203;DHT22;6666;51.626;7.530;2023-03-31T12:27:04;13.60;99.90
13203;DHT22;6666;51.626;7.530;2023-03-31T12:29:36;13.50;99.90
13203;DHT22;6666;51.626;7.530;2023-03-31T12:32:08;13.50;99.90
13203;DHT22;6666;51.626;7.530;2023-03-31T12:34:44;13.40;99.90
13203;DHT22;6666;51.626;7.530;2023-03-31T12:37:30;13.50;99.90
13203;DHT22;6666;51.626;7.530;2023-03-31T12:40:11;13.60;99.90
13203;DHT22;6666;51.626;7.530;2023-03-31T12:42:51;13.60;99.90
13203;DHT22;6666;51.626;7.530;2023-03-31T12:45:25;13.70;99.90
13203;DHT22;6666;51.626;7.530;2023-03-31T12:48:18;13.90;99.90
13203;DHT22;6666;51.626;7.530;2023-03-31T12:50:57;14.10;99.90
13203;DHT22;6666;51.626;7.530;2023-03-31T12:53:36;14.10;99.90
13203;DHT22;6666;51.626;7.530;2023-03-31T12:56:06;14.20;99.90
13203;DHT22;6666;51.626;7.530;2023-03-31T12:58:42;14.20;99.90
13203;DHT22;6666;51.626;7.530;2023-03-31T13:01:16;14.00;99.90
13203;DHT22;6666;51.626;7.530;2023-03-31T13:03:53;14.10;99.90
13203;DHT22;6666;51.626;7.530;2023-03-31T13:06:52;14.20;99.90
13203;DHT22;6666;51.626;7.530;2023-03-31T13:09:41;14.00;99.90
13203;DHT22;6666;51.626;7.530;2023-03-31T13:12:14;14.00;99.90
13203;DHT22;6666;51.626;7.530;2023-03-31T13:14:44;14.00;99.90
13203;DHT22;6666;51.626;7.530;2023-03-31T13:17:22;14.00;99.90
13203;DHT22;6666;51.626;7.530;2023-03-31T13:19:51;14.00;99.90
13203;DHT22;6666;51.626;7.530;2023-03-31T13:22:37;13.80;99.90
13203;DHT22;6666;51.626;7.530;2023-03-31T13:31:01;13.70;99.90
13203;DHT22;6666;51.626;7.530;2023-03-31T13:33:31;13.70;99.90
13203;DHT22;6666;51.626;7.530;2023-03-31T13:36:22;13.70;99.90
13203;DHT22;6666;51.626;7.530;2023-03-31T13:39:05;13.70;99.90
13203;DHT22;6666;51.626;7.530;2023-03-31T13:41:50;13.80;99.90
13203;DHT22;6666;51.626;7.530;2023-03-31T13:44:49;13.90;99.90
13203;DHT22;6666;51.626;7.530;2023-03-31T13:47:49;14.10;99.90
13203;DHT22;6666;51.626;7.530;2023-03-31T13:50:43;14.30;99.90
13203;DHT22;6666;51.626;7.530;2023-03-31T13:53:24;14.50;99.90
13203;DHT22;6666;51.626;7.530;2023-03-31T13:56:03;14.60;99.90
13203;DHT22;6666;51.626;7.530;2023-03-31T13:59:13;14.70;99.90
13203;DHT22;6666;51.626;7.530;2023-03-31T14:02:00;14.60;99.90
13203;DHT22;6666;51.626;7.530;2023-03-31T14:04:53;14.60;99.90
13203;DHT22;6666;51.626;7.530;2023-03-31T14:07:29;14.50;99.90
13203;DHT22;6666;51.626;7.530;2023-03-31T14:09:59;14.40;99.90
13203;DHT22;6666;51.626;7.530;2023-03-31T14:12:32;14.20;99.90
13203;DHT22;6666;51.626;7.530;2023-03-31T14:15:02;14.20;99.90
13203;DHT22;6666;51.626;7.530;2023-03-31T14:17:34;14.30;99.90
13203;DHT22;6666;51.626;7.530;2023-03-31T14:20:23;14.60;99.90
13203;DHT22;6666;51.626;7.530;2023-03-31T14:23:00;14.70;99.90
13203;DHT22;6666;51.626;7.530;2023-03-31T14:25:43;14.80;99.90
13203;DHT22;6666;51.626;7.530;2023-03-31T14:28:24;14.90;99.90
13203;DHT22;6666;51.626;7.530;2023-03-31T14:31:09;14.80;99.90
13203;DHT22;6666;51.626;7.530;2023-03-31T14:33:44;14.80;99.90
13203;DHT22;6666;51.626;7.530;2023-03-31T14:36:21;14.70;99.90
13203;DHT22;6666;51.626;7.530;2023-03-31T14:39:00;14.60;99.90
13203;DHT22;6666;51.626;7.530;2023-03-31T14:41:30;14.50;99.90
13203;DHT22;6666;51.626;7.530;2023-03-31T14:44:01;14.60;99.90
13203;DHT22;6666;51.626;7.530;2023-03-31T14:46:35;14.70;99.90
13203;DHT22;6666;51.626;7.530;2023-03-31T14:49:11;14.60;99.90
13203;DHT22;6666;51.626;7.530;2023-03-31T14:51:43;14.70;99.90
13203;DHT22;6666;51.626;7.530;2023-03-31T14:54:15;14.80;99.90
13203;DHT22;6666;51.626;7.530;2023-03-31T14:56:46;14.70;99.90
13203;DHT22;6666;51.626;7.530;2023-03-31T14:59:19;14.70;99.90
13203;DHT22;6666;51.626;7.530;2023-03-31T15:01:50;14.60;99.90
13203;DHT22;6666;51.626;7.530;2023-03-31T15:04:21;14.50;99.90
13203;DHT22;6666;51.626;7.530;2023-03-31T15:07:05;14.50;99.90
13203;DHT22;6666;51.626;7.530;2023-03-31T15:09:34;14.50;99.90
13203;DHT22;6666;51.626;7.530;2023-03-31T15:12:05;14.50;99.90
13203;DHT22;6666;51.626;7.530;2023-03-31T15:14:36;14.60;99.90
13203;DHT22;6666;51.626;7.530;2023-03-31T15:17:17;14.70;99.90
13203;DHT22;6666;51.626;7.530;2023-03-31T15:19:45;14.70;99.90
13203;DHT22;6666;51.626;7.530;2023-03-31T15:22:16;14.80;99.90
13203;DHT22;6666;51.626;7.530;2023-03-31T15:24:45;14.80;99.90
13203;DHT22;6666;51.626;7.530;2023-03-31T15:27:17;14.70;99.90
13203;DHT22;6666;51.626;7.530;2023-03-31T15:29:57;14.60;99.90
13203;DHT22;6666;51.626;7.530;2023-03-31T15:32:29;14.40;99.90
13203;DHT22;6666;51.626;7.530;2023-03-31T15:34:58;14.30;99.90
13203;DHT22;6666;51.626;7.530;2023-03-31T15:37:51;14.00;99.90
13203;DHT22;6666;51.626;7.530;2023-03-31T15:40:24;13.80;99.90
13203;DHT22;6666;51.626;7.530;2023-03-31T15:42:56;13.50;99.90
13203;DHT22;6666;51.626;7.530;2023-03-31T15:45:46;13.50;99.90
13203;DHT22;6666;51.626;7.530;2023-03-31T15:48:21;13.50;99.90
13203;DHT22;6666;51.626;7.530;2023-03-31T15:50:50;13.40;99.90
13203;DHT22;6666;51.626;7.530;2023-03-31T15:53:28;13.30;99.90
13203;DHT22;6666;51.626;7.530;2023-03-31T15:55:58;13.10;99.90
13203;DHT22;6666;51.626;7.530;2023-03-31T15:58:53;13.00;99.90
13203;DHT22;6666;51.626;7.530;2023-03-31T16:01:22;12.70;99.90
13203;DHT22;6666;51.626;7.530;2023-03-31T16:03:56;12.70;99.90
13203;DHT22;6666;51.626;7.530;2023-03-31T16:06:33;12.60;99.90
13203;DHT22;6666;51.626;7.530;2023-03-31T16:09:05;12.60;99.90
13203;DHT22;6666;51.626;7.530;2023-03-31T16:11:39;12.50;99.90
13203;DHT22;6666;51.626;7.530;2023-03-31T16:14:12;12.50;99.90
13203;DHT22;6666;51.626;7.530;2023-03-31T16:16:47;12.50;99.90
13203;DHT22;6666;51.626;7.530;2023-03-31T16:19:19;12.50;99.90
13203;DHT22;6666;51.626;7.530;2023-03-31T16:21:50;12.70;99.90
13203;DHT22;6666;51.626;7.530;2023-03-31T16:24:21;12.70;99.90
13203;DHT22;6666;51.626;7.530;2023-03-31T16:26:58;12.70;99.90
13203;DHT22;6666;51.626;7.530;2023-03-31T16:29:27;12.70;99.90
13203;DHT22;6666;51.626;7.530;2023-03-31T16:32:08;12.70;99.90
13203;DHT22;6666;51.626;7.530;2023-03-31T16:34:53;12.70;99.90
13203;DHT22;6666;51.626;7.530;2023-03-31T16:37:22;12.60;99.90
13203;DHT22;6666;51.626;7.530;2023-03-31T16:39:51;12.60;99.90
13203;DHT22;6666;51.626;7.530;2023-03-31T16:42:19;12.50;99.90
13203;DHT22;6666;51.626;7.530;2023-03-31T16:44:48;12.60;99.90